sensor_id;sensor_type;location;lat;lon;timestamp;temperature;humidity
16578;DHT22;8401;52.528;13.340;2022-11-02T00:00:23;12.10;99.90
16578;DHT22;8401;52.528;13.340;2022-11-02T00:02:48;12.10;99.90
16578;DHT22;8401;52.528;13.340;2022-11-02T00:05:14;12.10;99.90
16578;DHT22;8401;52.528;13.340;2022-11-02T00:07:41;12.00;99.90
16578;DHT22;8401;52.528;13.340;2022-11-02T00:10:07;12.10;99.90
16578;DHT22;8401;52.528;13.340;2022-11-02T00:12:33;12.10;99.90
16578;DHT22;8401;52.528;13.340;2022-11-02T00:14:59;12.10;99.90
16578;DHT22;8401;52.528;13.340;2022-11-02T00:17:24;12.10;99.90
16578;DHT22;8401;52.528;13.340;2022-11-02T00:19:50;12.00;99.90
16578;DHT22;8401;52.528;13.340;2022-11-02T00:22:16;12.10;99.90
16578;DHT22;8401;52.528;13.340;2022-11-02T00:24:41;12.00;99.90
16578;DHT22;8401;52.528;13.340;2022-11-02T00:27:07;11.90;99.90
16578;DHT22;8401;52.528;13.340;2022-11-02T00:29:33;11.90;99.90
16578;DHT22;8401;52.528;13.340;2022-11-02T00:31:59;11.80;99.90
16578;DHT22;8401;52.528;13.340;2022-11-02T00:34:25;11.80;99.90
16578;DHT22;8401;52.528;13.340;2022-11-02T00:36:51;11.80;99.90
16578;DHT22;8401;52.528;13.340;2022-11-02T00:39:18;11.70;99.90
16578;DHT22;8401;52.528;13.340;2022-11-02T00:41:43;11.70;99.90
16578;DHT22;8401;52.528;13.340;2022-11-02T00:44:09;11.70;99.90
16578;DHT22;8401;52.528;13.340;2022-11-02T00:46:35;11.60;99.90
16578;DHT22;8401;52.528;13.340;2022-11-02T00:49:00;11.60;99.90
16578;DHT22;8401;52.528;13.340;2022-11-02T00:51:26;11.60;99.90
16578;DHT22;8401;52.528;13.340;2022-11-02T00:53:51;11.50;99.90
16578;DHT22;8401;52.528;13.340;2022-11-02T00:56:17;11.60;99.90
16578;DHT22;8401;52.528;13.340;2022-11-02T00:58:43;11.50;99.90
16578;DHT22;8401;52.528;13.340;2022-11-02T01:01:08;11.50;99.90
16578;DHT22;8401;52.528;13.340;2022-11-02T01:03:34;11.50;99.90
16578;DHT22;8401;52.528;13.340;2022-11-02T01:06:07;11.50;99.90
16578;DHT22;8401;52.528;13.340;2022-11-02T01:08:33;11.50;99.90
16578;DHT22;8401;52.528;13.340;2022-11-02T01:11:12;11.50;99.90
16578;DHT22;8401;52.528;13.340;2022-11-02T01:13:38;11.60;99.90
16578;DHT22;8401;52.528;13.340;2022-11-02T01:16:04;11.50;99.90
16578;DHT22;8401;52.528;13.340;2022-11-02T01:18:30;11.50;99.90
16578;DHT22;8401;52.528;13.340;2022-11-02T01:20:59;11.40;99.90
16578;DHT22;8401;52.528;13.340;2022-11-02T01:23:25;11.30;99.90
16578;DHT22;8401;52.528;13.340;2022-11-02T01:25:51;11.30;99.90
16578;DHT22;8401;52.528;13.340;2022-11-02T01:28:16;11.30;99.90
16578;DHT22;8401;52.528;13.340;2022-11-02T01:30:42;11.30;99.90
16578;DHT22;8401;52.528;13.340;2022-11-02T01:33:08;11.30;99.90
16578;DHT22;8401;52.528;13.340;2022-11-02T01:35:36;11.30;99.90
16578;DHT22;8401;52.528;13.340;2022-11-02T01:38:01;11.30;99.90
16578;DHT22;8401;52.528;13.340;2022-11-02T01:40:27;11.30;99.90
16578;DHT22;8401;52.528;13.340;2022-11-02T01:42:58;11.30;99.90
16578;DHT22;8401;52.528;13.340;2022-11-02T01:45:24;11.30;99.90
16578;DHT22;8401;52.528;13.340;2022-11-02T01:47:50;11.30;99.90
16578;DHT22;8401;52.528;13.340;2022-11-02T01:50:19;11.30;99.90
16578;DHT22;8401;52.528;13.340;2022-11-02T01:52:46;11.30;99.90
16578;DHT22;8401;52.528;13.340;2022-11-02T01:55:19;11.40;99.90
16578;DHT22;8401;52.528;13.340;2022-11-02T01:57:55;11.50;99.90
16578;DHT22;8401;52.528;13.340;2022-11-02T02:00:22;11.40;99.90
16578;DHT22;8401;52.528;13.340;2022-11-02T02:03:04;11.30;99.90
16578;DHT22;8401;52.528;13.340;2022-11-02T02:05:33;11.20;99.90
16578;DHT22;8401;52.528;13.340;2022-11-02T02:08:01;11.10;99.90
16578;DHT22;8401;52.528;13.340;2022-11-02T02:10:27;11.10;99.90
16578;DHT22;8401;52.528;13.340;2022-11-02T02:12:53;11.10;99.90
16578;DHT22;8401;52.528;13.340;2022-11-02T02:15:24;11.10;99.90
16578;DHT22;8401;52.528;13.340;2022-11-02T02:18:11;11.10;99.90
16578;DHT22;8401;52.528;13.340;2022-11-02T02:31:42;11.10;99.90
16578;DHT22;8401;52.528;13.340;2022-11-02T02:34:16;11.20;99.90
16578;DHT22;8401;52.528;13.340;2022-11-02T02:36:49;11.30;99.90
16578;DHT22;8401;52.528;13.340;2022-11-02T02:42:32;11.00;99.90
16578;DHT22;8401;52.528;13.340;2022-11-02T02:45:15;10.80;99.90
16578;DHT22;8401;52.528;13.340;2022-11-02T02:47:49;10.80;99.90
16578;DHT22;8401;52.528;13.340;2022-11-02T02:50:26;10.80;99.90
16578;DHT22;8401;52.528;13.340;2022-11-02T02:52:55;10.70;99.90
16578;DHT22;8401;52.528;13.340;2022-11-02T02:55:26;10.70;99.90
16578;DHT22;8401;52.528;13.340;2022-11-02T02:57:54;10.80;99.90
16578;DHT22;8401;52.528;13.340;2022-11-02T03:00:20;10.80;99.90
16578;DHT22;8401;52.528;13.340;2022-11-02T03:02:46;10.80;99.90
16578;DHT22;8401;52.528;13.340;2022-11-02T03:05:29;10.80;99.90
16578;DHT22;8401;52.528;13.340;2022-11-02T03:07:59;10.80;99.90
16578;DHT22;8401;52.528;13.340;2022-11-02T03:10:33;10.70;99.90
16578;DHT22;8401;52.528;13.340;2022-11-02T03:16:03;10.80;99.90
16578;DHT22;8401;52.528;13.340;2022-11-02T03:18:42;10.80;99.90
16578;DHT22;8401;52.528;13.340;2022-11-02T03:24:05;10.80;99.90
16578;DHT22;8401;52.528;13.340;2022-11-02T03:29:30;10.60;99.90
16578;DHT22;8401;52.528;13.340;2022-11-02T03:32:02;10.60;99.90
16578;DHT22;8401;52.528;13.340;2022-11-02T03:39:41;10.70;99.90
16578;DHT22;8401;52.528;13.340;2022-11-02T03:42:11;10.70;99.90
16578;DHT22;8401;52.528;13.340;2022-11-02T03:44:38;10.60;99.90
16578;DHT22;8401;52.528;13.340;2022-11-02T03:47:07;10.60;99.90
16578;DHT22;8401;52.528;13.340;2022-11-02T03:49:34;10.50;99.90
16578;DHT22;8401;52.528;13.340;2022-11-02T03:52:04;10.40;99.90
16578;DHT22;8401;52.528;13.340;2022-11-02T03:54:45;10.40;99.90
16578;DHT22;8401;52.528;13.340;2022-11-02T03:57:24;10.40;99.90
16578;DHT22;8401;52.528;13.340;2022-11-02T03:59:51;10.40;99.90
16578;DHT22;8401;52.528;13.340;2022-11-02T04:02:17;10.30;99.90
16578;DHT22;8401;52.528;13.340;2022-11-02T04:04:51;10.40;99.90
16578;DHT22;8401;52.528;13.340;2022-11-02T04:07:22;10.30;99.90
16578;DHT22;8401;52.528;13.340;2022-11-02T04:09:48;10.30;99.90
16578;DHT22;8401;52.528;13.340;2022-11-02T04:12:14;10.40;99.90
16578;DHT22;8401;52.528;13.340;2022-11-02T04:14:58;10.50;99.90
16578;DHT22;8401;52.528;13.340;2022-11-02T04:17:25;10.50;99.90
16578;DHT22;8401;52.528;13.340;2022-11-02T04:20:10;10.40;99.90
16578;DHT22;8401;52.528;13.340;2022-11-02T04:22:35;10.30;99.90
16578;DHT22;8401;52.528;13.340;2022-11-02T04:25:20;10.40;99.90
16578;DHT22;8401;52.528;13.340;2022-11-02T04:27:47;10.40;99.90
16578;DHT22;8401;52.528;13.340;2022-11-02T04:30:21;10.30;99.90
16578;DHT22;8401;52.528;13.340;2022-11-02T04:32:48;10.30;99.90
16578;DHT22;8401;52.528;13.340;2022-11-02T04:35:34;10.30;99.90
16578;DHT22;8401;52.528;13.340;2022-11-02T04:38:00;10.30;99.90
16578;DHT22;8401;52.528;13.340;2022-11-02T04:40:45;10.30;99.90
16578;DHT22;8401;52.528;13.340;2022-11-02T04:43:11;10.20;99.90
16578;DHT22;8401;52.528;13.340;2022-11-02T04:45:36;10.10;99.90
16578;DHT22;8401;52.528;13.340;2022-11-02T04:48:05;10.10;99.90
16578;DHT22;8401;52.528;13.340;2022-11-02T04:50:31;10.10;99.90
16578;DHT22;8401;52.528;13.340;2022-11-02T04:52:58;10.10;99.90
16578;DHT22;8401;52.528;13.340;2022-11-02T04:55:25;10.10;99.90
16578;DHT22;8401;52.528;13.340;2022-11-02T04:57:50;10.00;99.90
16578;DHT22;8401;52.528;13.340;2022-11-02T05:00:16;10.00;99.90
16578;DHT22;8401;52.528;13.340;2022-11-02T05:02:44;10.00;99.90
16578;DHT22;8401;52.528;13.340;2022-11-02T05:05:10;10.00;99.90
16578;DHT22;8401;52.528;13.340;2022-11-02T05:07:36;10.10;99.90
16578;DHT22;8401;52.528;13.340;2022-11-02T05:10:02;10.00;99.90
16578;DHT22;8401;52.528;13.340;2022-11-02T05:12:28;10.00;99.90
16578;DHT22;8401;52.528;13.340;2022-11-02T05:14:53;9.90;99.90
16578;DHT22;8401;52.528;13.340;2022-11-02T05:17:19;10.00;99.90
16578;DHT22;8401;52.528;13.340;2022-11-02T05:19:44;9.90;99.90
16578;DHT22;8401;52.528;13.340;2022-11-02T05:22:10;9.90;99.90
16578;DHT22;8401;52.528;13.340;2022-11-02T05:24:36;10.00;99.90
16578;DHT22;8401;52.528;13.340;2022-11-02T05:27:01;10.00;99.90
16578;DHT22;8401;52.528;13.340;2022-11-02T05:29:27;10.00;99.90
16578;DHT22;8401;52.528;13.340;2022-11-02T05:31:53;9.90;99.90
16578;DHT22;8401;52.528;13.340;2022-11-02T05:34:18;9.90;99.90
16578;DHT22;8401;52.528;13.340;2022-11-02T05:36:46;10.00;99.90
16578;DHT22;8401;52.528;13.340;2022-11-02T05:39:12;10.00;99.90
16578;DHT22;8401;52.528;13.340;2022-11-02T05:41:38;9.90;99.90
16578;DHT22;8401;52.528;13.340;2022-11-02T05:44:03;9.90;99.90
16578;DHT22;8401;52.528;13.340;2022-11-02T05:46:29;9.90;99.90
16578;DHT22;8401;52.528;13.340;2022-11-02T05:48:54;10.00;99.90
16578;DHT22;8401;52.528;13.340;2022-11-02T05:51:20;10.10;99.90
16578;DHT22;8401;52.528;13.340;2022-11-02T05:53:45;10.10;99.90
16578;DHT22;8401;52.528;13.340;2022-11-02T05:56:11;10.00;99.90
16578;DHT22;8401;52.528;13.340;2022-11-02T05:58:37;10.00;99.90
16578;DHT22;8401;52.528;13.340;2022-11-02T06:01:05;10.10;99.90
16578;DHT22;8401;52.528;13.340;2022-11-02T06:03:31;10.00;99.90
16578;DHT22;8401;52.528;13.340;2022-11-02T06:06:00;10.10;99.90
16578;DHT22;8401;52.528;13.340;2022-11-02T06:08:27;10.10;99.90
16578;DHT22;8401;52.528;13.340;2022-11-02T06:10:53;10.10;99.90
16578;DHT22;8401;52.528;13.340;2022-11-02T06:13:18;10.10;99.90
16578;DHT22;8401;52.528;13.340;2022-11-02T06:15:44;10.10;99.90
16578;DHT22;8401;52.528;13.340;2022-11-02T06:18:10;10.00;99.90
16578;DHT22;8401;52.528;13.340;2022-11-02T06:20:35;10.00;99.90
16578;DHT22;8401;52.528;13.340;2022-11-02T06:23:01;10.00;99.90
16578;DHT22;8401;52.528;13.340;2022-11-02T06:25:26;10.00;99.90
16578;DHT22;8401;52.528;13.340;2022-11-02T06:27:55;10.00;99.90
16578;DHT22;8401;52.528;13.340;2022-11-02T06:30:22;10.10;99.90
16578;DHT22;8401;52.528;13.340;2022-11-02T06:32:50;10.10;99.90
16578;DHT22;8401;52.528;13.340;2022-11-02T06:35:17;10.10;99.90
16578;DHT22;8401;52.528;13.340;2022-11-02T06:37:44;10.10;99.90
16578;DHT22;8401;52.528;13.340;2022-11-02T06:40:10;10.10;99.90
16578;DHT22;8401;52.528;13.340;2022-11-02T06:42:36;10.10;99.90
16578;DHT22;8401;52.528;13.340;2022-11-02T06:45:03;10.10;99.90
16578;DHT22;8401;52.528;13.340;2022-11-02T06:47:32;10.10;99.90
16578;DHT22;8401;52.528;13.340;2022-11-02T06:49:59;10.00;99.90
16578;DHT22;8401;52.528;13.340;2022-11-02T06:52:25;10.00;99.90
16578;DHT22;8401;52.528;13.340;2022-11-02T06:54:51;10.00;99.90
16578;DHT22;8401;52.528;13.340;2022-11-02T06:57:17;10.00;99.90
16578;DHT22;8401;52.528;13.340;2022-11-02T06:59:43;10.10;99.90
16578;DHT22;8401;52.528;13.340;2022-11-02T07:02:08;10.10;99.90
16578;DHT22;8401;52.528;13.340;2022-11-02T07:04:34;10.20;99.90
16578;DHT22;8401;52.528;13.340;2022-11-02T07:07:00;10.30;99.90
16578;DHT22;8401;52.528;13.340;2022-11-02T07:09:25;10.40;99.90
16578;DHT22;8401;52.528;13.340;2022-11-02T07:11:51;10.30;99.90
16578;DHT22;8401;52.528;13.340;2022-11-02T07:14:17;10.40;99.90
16578;DHT22;8401;52.528;13.340;2022-11-02T07:16:42;10.30;99.90
16578;DHT22;8401;52.528;13.340;2022-11-02T07:19:08;10.40;99.90
16578;DHT22;8401;52.528;13.340;2022-11-02T07:21:34;10.40;99.90
16578;DHT22;8401;52.528;13.340;2022-11-02T07:23:59;10.40;99.90
16578;DHT22;8401;52.528;13.340;2022-11-02T07:26:25;10.40;99.90
16578;DHT22;8401;52.528;13.340;2022-11-02T07:28:51;10.50;99.90
16578;DHT22;8401;52.528;13.340;2022-11-02T07:31:17;10.50;99.90
16578;DHT22;8401;52.528;13.340;2022-11-02T07:33:42;10.60;99.90
16578;DHT22;8401;52.528;13.340;2022-11-02T07:36:08;10.60;99.90
16578;DHT22;8401;52.528;13.340;2022-11-02T07:38:34;10.60;99.90
16578;DHT22;8401;52.528;13.340;2022-11-02T07:40:59;10.70;99.90
16578;DHT22;8401;52.528;13.340;2022-11-02T07:43:25;10.90;99.90
16578;DHT22;8401;52.528;13.340;2022-11-02T07:45:51;11.10;99.90
16578;DHT22;8401;52.528;13.340;2022-11-02T07:48:16;11.20;99.90
16578;DHT22;8401;52.528;13.340;2022-11-02T07:50:42;11.40;99.90
16578;DHT22;8401;52.528;13.340;2022-11-02T07:53:08;11.40;99.90
16578;DHT22;8401;52.528;13.340;2022-11-02T07:55:34;11.50;99.90
16578;DHT22;8401;52.528;13.340;2022-11-02T07:58:02;11.70;99.90
16578;DHT22;8401;52.528;13.340;2022-11-02T08:00:30;11.70;99.90
16578;DHT22;8401;52.528;13.340;2022-11-02T08:02:57;11.70;99.90
16578;DHT22;8401;52.528;13.340;2022-11-02T08:05:24;11.80;99.90
16578;DHT22;8401;52.528;13.340;2022-11-02T08:08:03;11.80;99.90
16578;DHT22;8401;52.528;13.340;2022-11-02T08:10:30;11.70;99.90
16578;DHT22;8401;52.528;13.340;2022-11-02T08:12:56;11.80;99.90
16578;DHT22;8401;52.528;13.340;2022-11-02T08:15:22;11.90;99.90
16578;DHT22;8401;52.528;13.340;2022-11-02T08:18:01;11.90;99.90
16578;DHT22;8401;52.528;13.340;2022-11-02T08:20:28;11.90;99.90
16578;DHT22;8401;52.528;13.340;2022-11-02T08:22:54;12.00;99.90
16578;DHT22;8401;52.528;13.340;2022-11-02T08:25:19;12.30;99.90
16578;DHT22;8401;52.528;13.340;2022-11-02T08:27:45;12.30;99.90
16578;DHT22;8401;52.528;13.340;2022-11-02T08:30:11;12.30;99.90
16578;DHT22;8401;52.528;13.340;2022-11-02T08:32:36;12.40;99.90
16578;DHT22;8401;52.528;13.340;2022-11-02T08:35:02;12.30;99.90
16578;DHT22;8401;52.528;13.340;2022-11-02T08:37:28;12.30;99.90
16578;DHT22;8401;52.528;13.340;2022-11-02T08:39:54;12.30;99.90
16578;DHT22;8401;52.528;13.340;2022-11-02T08:42:20;12.20;99.90
16578;DHT22;8401;52.528;13.340;2022-11-02T08:44:45;12.20;99.90
16578;DHT22;8401;52.528;13.340;2022-11-02T08:47:11;12.40;99.90
16578;DHT22;8401;52.528;13.340;2022-11-02T08:49:36;12.50;99.90
16578;DHT22;8401;52.528;13.340;2022-11-02T08:52:02;12.50;99.90
16578;DHT22;8401;52.528;13.340;2022-11-02T08:54:27;12.50;99.90
16578;DHT22;8401;52.528;13.340;2022-11-02T08:56:53;12.40;99.90
16578;DHT22;8401;52.528;13.340;2022-11-02T08:59:19;12.50;99.90
16578;DHT22;8401;52.528;13.340;2022-11-02T09:01:44;12.50;99.90
16578;DHT22;8401;52.528;13.340;2022-11-02T09:04:10;12.60;99.90
16578;DHT22;8401;52.528;13.340;2022-11-02T09:06:35;12.60;99.90
16578;DHT22;8401;52.528;13.340;2022-11-02T09:09:01;12.70;99.90
16578;DHT22;8401;52.528;13.340;2022-11-02T09:11:26;12.90;99.90
16578;DHT22;8401;52.528;13.340;2022-11-02T09:13:52;13.00;99.90
16578;DHT22;8401;52.528;13.340;2022-11-02T09:16:17;12.80;99.90
16578;DHT22;8401;52.528;13.340;2022-11-02T09:18:43;12.90;99.90
16578;DHT22;8401;52.528;13.340;2022-11-02T09:21:09;13.00;99.90
16578;DHT22;8401;52.528;13.340;2022-11-02T09:23:34;13.60;99.90
16578;DHT22;8401;52.528;13.340;2022-11-02T09:26:00;13.70;99.90
16578;DHT22;8401;52.528;13.340;2022-11-02T09:28:26;13.80;99.90
16578;DHT22;8401;52.528;13.340;2022-11-02T09:30:51;13.80;99.90
16578;DHT22;8401;52.528;13.340;2022-11-02T09:33:17;13.60;99.90
16578;DHT22;8401;52.528;13.340;2022-11-02T09:35:45;13.80;99.90
16578;DHT22;8401;52.528;13.340;2022-11-02T09:38:12;14.10;99.90
16578;DHT22;8401;52.528;13.340;2022-11-02T09:46:19;15.60;99.90
16578;DHT22;8401;52.528;13.340;2022-11-02T09:49:05;16.20;99.90
16578;DHT22;8401;52.528;13.340;2022-11-02T09:51:54;17.70;99.90
16578;DHT22;8401;52.528;13.340;2022-11-02T09:57:15;18.90;99.90
16578;DHT22;8401;52.528;13.340;2022-11-02T09:59:41;19.60;99.90
16578;DHT22;8401;52.528;13.340;2022-11-02T10:16:12;20.30;99.90
16578;DHT22;8401;52.528;13.340;2022-11-02T10:18:40;20.10;99.90
16578;DHT22;8401;52.528;13.340;2022-11-02T10:21:13;20.10;99.90
16578;DHT22;8401;52.528;13.340;2022-11-02T10:23:45;20.00;99.90
16578;DHT22;8401;52.528;13.340;2022-11-02T10:26:22;20.60;99.90
16578;DHT22;8401;52.528;13.340;2022-11-02T10:28:52;20.20;99.90
16578;DHT22;8401;52.528;13.340;2022-11-02T10:31:30;19.10;99.90
16578;DHT22;8401;52.528;13.340;2022-11-02T10:33:59;17.90;99.90
16578;DHT22;8401;52.528;13.340;2022-11-02T10:39:27;16.60;99.90
16578;DHT22;8401;52.528;13.340;2022-11-02T10:42:07;16.60;99.90
16578;DHT22;8401;52.528;13.340;2022-11-02T10:47:56;16.10;99.90
16578;DHT22;8401;52.528;13.340;2022-11-02T10:50:50;16.10;99.90
16578;DHT22;8401;52.528;13.340;2022-11-02T10:53:19;16.00;99.90
16578;DHT22;8401;52.528;13.340;2022-11-02T10:56:11;15.80;99.90
16578;DHT22;8401;52.528;13.340;2022-11-02T10:58:48;15.90;99.90
16578;DHT22;8401;52.528;13.340;2022-11-02T11:01:14;15.60;99.90
16578;DHT22;8401;52.528;13.340;2022-11-02T11:04:03;15.60;99.90
16578;DHT22;8401;52.528;13.340;2022-11-02T11:06:40;15.60;99.90
16578;DHT22;8401;52.528;13.340;2022-11-02T11:12:02;15.70;99.90
16578;DHT22;8401;52.528;13.340;2022-11-02T11:14:52;15.80;99.90
16578;DHT22;8401;52.528;13.340;2022-11-02T11:17:28;15.60;99.90
16578;DHT22;8401;52.528;13.340;2022-11-02T11:19:57;15.60;99.90
16578;DHT22;8401;52.528;13.340;2022-11-02T11:25:25;15.50;99.90
16578;DHT22;8401;52.528;13.340;2022-11-02T11:32:53;15.30;99.90
16578;DHT22;8401;52.528;13.340;2022-11-02T11:35:20;15.30;99.90
16578;DHT22;8401;52.528;13.340;2022-11-02T11:37:53;15.20;99.90
16578;DHT22;8401;52.528;13.340;2022-11-02T11:40:22;15.30;99.90
16578;DHT22;8401;52.528;13.340;2022-11-02T11:42:49;15.20;99.90
16578;DHT22;8401;52.528;13.340;2022-11-02T11:45:22;15.10;99.90
16578;DHT22;8401;52.528;13.340;2022-11-02T11:50:46;15.10;99.90
16578;DHT22;8401;52.528;13.340;2022-11-02T11:53:22;15.20;99.90
16578;DHT22;8401;52.528;13.340;2022-11-02T11:55:53;15.40;99.90
16578;DHT22;8401;52.528;13.340;2022-11-02T11:58:23;15.50;99.90
16578;DHT22;8401;52.528;13.340;2022-11-02T12:03:30;15.30;99.90
16578;DHT22;8401;52.528;13.340;2022-11-02T12:06:07;15.30;99.90
16578;DHT22;8401;52.528;13.340;2022-11-02T12:08:47;15.30;99.90
16578;DHT22;8401;52.528;13.340;2022-11-02T12:12:29;15.30;99.90
16578;DHT22;8401;52.528;13.340;2022-11-02T12:17:30;15.30;99.90
16578;DHT22;8401;52.528;13.340;2022-11-02T12:25:19;15.10;99.90
16578;DHT22;8401;52.528;13.340;2022-11-02T12:31:23;15.20;99.90
16578;DHT22;8401;52.528;13.340;2022-11-02T12:34:18;15.30;99.90
16578;DHT22;8401;52.528;13.340;2022-11-02T12:36:59;15.20;99.90
16578;DHT22;8401;52.528;13.340;2022-11-02T12:39:50;15.40;99.90
16578;DHT22;8401;52.528;13.340;2022-11-02T12:42:26;15.40;99.90
16578;DHT22;8401;52.528;13.340;2022-11-02T12:48:03;15.60;99.90
16578;DHT22;8401;52.528;13.340;2022-11-02T12:56:05;15.60;99.90
16578;DHT22;8401;52.528;13.340;2022-11-02T12:58:34;15.60;99.90
16578;DHT22;8401;52.528;13.340;2022-11-02T13:06:20;15.50;99.90
16578;DHT22;8401;52.528;13.340;2022-11-02T13:08:57;15.50;99.90
16578;DHT22;8401;52.528;13.340;2022-11-02T13:13:58;15.40;99.90
16578;DHT22;8401;52.528;13.340;2022-11-02T13:16:39;15.40;99.90
16578;DHT22;8401;52.528;13.340;2022-11-02T13:19:18;15.30;99.90
16578;DHT22;8401;52.528;13.340;2022-11-02T13:21:48;15.40;99.90
16578;DHT22;8401;52.528;13.340;2022-11-02T13:24:18;15.50;99.90
16578;DHT22;8401;52.528;13.340;2022-11-02T13:26:47;15.50;99.90
16578;DHT22;8401;52.528;13.340;2022-11-02T13:31:54;15.50;99.90
16578;DHT22;8401;52.528;13.340;2022-11-02T13:34:33;15.40;99.90
16578;DHT22;8401;52.528;13.340;2022-11-02T13:37:07;15.40;99.90
16578;DHT22;8401;52.528;13.340;2022-11-02T13:39:41;15.20;99.90
16578;DHT22;8401;52.528;13.340;2022-11-02T13:43:05;15.10;99.90
16578;DHT22;8401;52.528;13.340;2022-11-02T13:50:45;15.40;99.90
16578;DHT22;8401;52.528;13.340;2022-11-02T13:53:18;15.50;99.90
16578;DHT22;8401;52.528;13.340;2022-11-02T13:55:56;15.50;99.90
16578;DHT22;8401;52.528;13.340;2022-11-02T14:00:53;15.70;99.90
16578;DHT22;8401;52.528;13.340;2022-11-02T14:03:30;15.70;99.90
16578;DHT22;8401;52.528;13.340;2022-11-02T14:05:59;15.70;99.90
16578;DHT22;8401;52.528;13.340;2022-11-02T14:08:32;15.50;99.90
16578;DHT22;8401;52.528;13.340;2022-11-02T14:22:08;15.20;99.90
16578;DHT22;8401;52.528;13.340;2022-11-02T14:35:05;14.90;99.90
16578;DHT22;8401;52.528;13.340;2022-11-02T14:48:04;14.90;99.90
16578;DHT22;8401;52.528;13.340;2022-11-02T14:50:30;14.90;99.90
16578;DHT22;8401;52.528;13.340;2022-11-02T14:53:04;14.90;99.90
16578;DHT22;8401;52.528;13.340;2022-11-02T14:55:33;14.90;99.90
16578;DHT22;8401;52.528;13.340;2022-11-02T14:58:07;14.90;99.90
16578;DHT22;8401;52.528;13.340;2022-11-02T15:03:30;14.60;99.90
16578;DHT22;8401;52.528;13.340;2022-11-02T15:09:02;14.50;99.90
16578;DHT22;8401;52.528;13.340;2022-11-02T15:11:50;14.50;99.90
16578;DHT22;8401;52.528;13.340;2022-11-02T15:22:40;14.20;99.90
16578;DHT22;8401;52.528;13.340;2022-11-02T15:25:34;14.30;99.90
16578;DHT22;8401;52.528;13.340;2022-11-02T15:28:21;14.20;99.90
16578;DHT22;8401;52.528;13.340;2022-11-02T15:31:15;14.20;99.90
16578;DHT22;8401;52.528;13.340;2022-11-02T15:33:44;14.10;99.90
16578;DHT22;8401;52.528;13.340;2022-11-02T15:36:16;14.10;99.90
16578;DHT22;8401;52.528;13.340;2022-11-02T15:38:48;14.00;99.90
16578;DHT22;8401;52.528;13.340;2022-11-02T15:46:58;14.00;99.90
16578;DHT22;8401;52.528;13.340;2022-11-02T15:52:37;13.80;99.90
16578;DHT22;8401;52.528;13.340;2022-11-02T15:56:04;13.80;99.90
16578;DHT22;8401;52.528;13.340;2022-11-02T15:58:32;13.70;99.90
16578;DHT22;8401;52.528;13.340;2022-11-02T16:03:49;13.60;99.90
16578;DHT22;8401;52.528;13.340;2022-11-02T16:06:30;13.60;99.90
16578;DHT22;8401;52.528;13.340;2022-11-02T16:08:59;13.60;99.90
16578;DHT22;8401;52.528;13.340;2022-11-02T16:11:25;13.60;99.90
16578;DHT22;8401;52.528;13.340;2022-11-02T16:13:51;13.60;99.90
16578;DHT22;8401;52.528;13.340;2022-11-02T16:16:20;13.50;99.90
16578;DHT22;8401;52.528;13.340;2022-11-02T16:18:51;13.50;99.90
16578;DHT22;8401;52.528;13.340;2022-11-02T16:21:18;13.50;99.90
16578;DHT22;8401;52.528;13.340;2022-11-02T16:23:54;13.50;99.90
16578;DHT22;8401;52.528;13.340;2022-11-02T16:26:25;13.40;99.90
16578;DHT22;8401;52.528;13.340;2022-11-02T16:28:53;13.30;99.90
16578;DHT22;8401;52.528;13.340;2022-11-02T16:31:24;13.30;99.90
16578;DHT22;8401;52.528;13.340;2022-11-02T16:33:57;13.30;99.90
16578;DHT22;8401;52.528;13.340;2022-11-02T16:36:25;13.20;99.90
16578;DHT22;8401;52.528;13.340;2022-11-02T16:41:29;13.20;99.90
16578;DHT22;8401;52.528;13.340;2022-11-02T16:43:56;13.10;99.90
16578;DHT22;8401;52.528;13.340;2022-11-02T16:46:38;13.10;99.90
16578;DHT22;8401;52.528;13.340;2022-11-02T16:49:14;13.10;99.90
16578;DHT22;8401;52.528;13.340;2022-11-02T16:51:48;13.00;99.90
16578;DHT22;8401;52.528;13.340;2022-11-02T16:56:52;13.00;99.90
16578;DHT22;8401;52.528;13.340;2022-11-02T16:59:18;12.90;99.90
16578;DHT22;8401;52.528;13.340;2022-11-02T17:01:45;12.90;99.90
16578;DHT22;8401;52.528;13.340;2022-11-02T17:04:21;12.90;99.90
16578;DHT22;8401;52.528;13.340;2022-11-02T17:06:48;12.90;99.90
16578;DHT22;8401;52.528;13.340;2022-11-02T17:09:32;12.80;99.90
16578;DHT22;8401;52.528;13.340;2022-11-02T17:12:04;12.80;99.90
16578;DHT22;8401;52.528;13.340;2022-11-02T17:14:31;12.80;99.90
16578;DHT22;8401;52.528;13.340;2022-11-02T17:17:05;12.70;99.90
16578;DHT22;8401;52.528;13.340;2022-11-02T17:22:26;12.70;99.90
16578;DHT22;8401;52.528;13.340;2022-11-02T17:25:13;12.60;99.90
16578;DHT22;8401;52.528;13.340;2022-11-02T17:27:43;12.60;99.90
16578;DHT22;8401;52.528;13.340;2022-11-02T17:33:25;12.50;99.90
16578;DHT22;8401;52.528;13.340;2022-11-02T17:35:53;12.50;99.90
16578;DHT22;8401;52.528;13.340;2022-11-02T17:38:23;12.50;99.90
16578;DHT22;8401;52.528;13.340;2022-11-02T17:40:48;12.50;99.90
16578;DHT22;8401;52.528;13.340;2022-11-02T17:43:17;12.40;99.90
16578;DHT22;8401;52.528;13.340;2022-11-02T17:45:43;12.40;99.90
16578;DHT22;8401;52.528;13.340;2022-11-02T17:48:08;12.40;99.90
16578;DHT22;8401;52.528;13.340;2022-11-02T17:50:36;12.40;99.90
16578;DHT22;8401;52.528;13.340;2022-11-02T17:53:03;12.40;99.90
16578;DHT22;8401;52.528;13.340;2022-11-02T17:55:32;12.40;99.90
16578;DHT22;8401;52.528;13.340;2022-11-02T17:57:59;12.30;99.90
16578;DHT22;8401;52.528;13.340;2022-11-02T18:00:26;12.30;99.90
16578;DHT22;8401;52.528;13.340;2022-11-02T18:02:54;12.30;99.90
16578;DHT22;8401;52.528;13.340;2022-11-02T18:05:35;12.30;99.90
16578;DHT22;8401;52.528;13.340;2022-11-02T18:08:04;12.30;99.90
16578;DHT22;8401;52.528;13.340;2022-11-02T18:10:41;12.30;99.90
16578;DHT22;8401;52.528;13.340;2022-11-02T18:13:12;12.30;99.90
16578;DHT22;8401;52.528;13.340;2022-11-02T18:15:38;12.20;99.90
16578;DHT22;8401;52.528;13.340;2022-11-02T18:18:04;12.20;99.90
16578;DHT22;8401;52.528;13.340;2022-11-02T18:20:29;12.20;99.90
16578;DHT22;8401;52.528;13.340;2022-11-02T18:22:56;12.20;99.90
16578;DHT22;8401;52.528;13.340;2022-11-02T18:25:23;12.20;99.90
16578;DHT22;8401;52.528;13.340;2022-11-02T18:27:54;12.10;99.90
16578;DHT22;8401;52.528;13.340;2022-11-02T18:30:20;12.10;99.90
16578;DHT22;8401;52.528;13.340;2022-11-02T18:32:46;12.10;99.90
16578;DHT22;8401;52.528;13.340;2022-11-02T18:35:15;12.10;99.90
16578;DHT22;8401;52.528;13.340;2022-11-02T18:37:41;12.10;99.90
16578;DHT22;8401;52.528;13.340;2022-11-02T18:40:09;12.00;99.90
16578;DHT22;8401;52.528;13.340;2022-11-02T18:42:37;12.00;99.90
16578;DHT22;8401;52.528;13.340;2022-11-02T18:45:03;12.00;99.90
16578;DHT22;8401;52.528;13.340;2022-11-02T18:47:29;12.00;99.90